Time;durP1;ratioP1;P1;durP2;ratioP2;P2;SDS_P1;SDS_P2;PMS_P1;PMS_P2;Temp;Humidity;BMP_temperature;BMP_pressure;BME280_temperature;BME280_humidity;BME280_pressure;Samples;Min_cycle;Max_cycle;Signal;HPM_P1;HPM_P2
2021/03/09 00:02:16;;;;;;;7.8;5;;;;;;;;;;;;;
2021/03/09 00:04:43;;;;;;;19.4;5;;;;;;;;;;;;;
2021/03/09 00:07:08;;;;;;;4.4;3.6;;;;;;;;;;;;;
2021/03/09 00:09:34;;;;;;;9.8;5.3;;;;;;;;;;;;;
2021/03/09 00:11:59;;;;;;;6.3;3.9;;;;;;;;;;;;;
2021/03/09 00:14:27;;;;;;;6.8;5.3;;;;;;;;;;;;;
2021/03/09 00:16:52;;;;;;;8.6;4.4;;;;;;;;;;;;;
2021/03/09 00:19:18;;;;;;;7.6;4.9;;;;;;;;;;;;;
2021/03/09 00:21:43;;;;;;;6.9;4.6;;;;;;;;;;;;;
2021/03/09 00:24:10;;;;;;;7.2;4.8;;;;;;;;;;;;;
2021/03/09 00:26:35;;;;;;;7.3;4.5;;;;;;;;;;;;;
2021/03/09 00:29:00;;;;;;;17.5;4.8;;;;;;;;;;;;;
2021/03/09 00:31:26;;;;;;;22.4;11.9;;;;;;;;;;;;;
2021/03/09 00:33:51;;;;;;;6.8;4.8;;;;;;;;;;;;;
2021/03/09 00:36:16;;;;;;;10.5;5.3;;;;;;;;;;;;;
2021/03/09 00:38:41;;;;;;;11.8;4.6;;;;;;;;;;;;;
2021/03/09 00:41:06;;;;;;;10.1;5.7;;;;;;;;;;;;;
2021/03/09 00:43:33;;;;;;;6.4;4.3;;;;;;;;;;;;;
2021/03/09 00:45:58;;;;;;;8.7;5.4;;;;;;;;;;;;;
2021/03/09 00:48:24;;;;;;;8.3;4.9;;;;;;;;;;;;;
2021/03/09 00:50:49;;;;;;;8.7;6.2;;;;;;;;;;;;;
2021/03/09 00:53:16;;;;;;;7.2;4.9;;;;;;;;;;;;;
2021/03/09 00:55:41;;;;;;;8.4;5.4;;;;;;;;;;;;;
2021/03/09 00:58:07;;;;;;;12.2;4.6;;;;;;;;;;;;;
2021/03/09 01:00:32;;;;;;;10.8;6.6;;;;;;;;;;;;;
2021/03/09 01:02:58;;;;;;;8.2;4.2;;;;;;;;;;;;;
2021/03/09 01:05:23;;;;;;;12.9;6.1;;;;;;;;;;;;;
2021/03/09 01:07:49;;;;;;;8;4;;;;;;;;;;;;;
2021/03/09 01:10:15;;;;;;;10.3;6.5;;;;;;;;;;;;;
2021/03/09 01:12:44;;;;;;;4.9;4.4;;;;;;;;;;;;;
2021/03/09 01:15:09;;;;;;;7.8;5.4;;;;;;;;;;;;;
2021/03/09 01:17:38;;;;;;;6.4;4.2;;;;;;;;;;;;;
2021/03/09 01:20:07;;;;;;;9.3;5.5;;;;;;;;;;;;;
2021/03/09 01:22:32;;;;;;;5.8;4.5;;;;;;;;;;;;;
2021/03/09 01:24:57;;;;;;;11.3;5.6;;;;;;;;;;;;;
2021/03/09 01:27:23;;;;;;;10;5.7;;;;;;;;;;;;;
2021/03/09 01:29:48;;;;;;;12.1;5.4;;;;;;;;;;;;;
2021/03/09 01:32:13;;;;;;;8.9;4.6;;;;;;;;;;;;;
2021/03/09 01:34:40;;;;;;;7.6;3.8;;;;;;;;;;;;;
2021/03/09 01:37:05;;;;;;;16.3;6.3;;;;;;;;;;;;;
2021/03/09 01:39:30;;;;;;;7.6;5.5;;;;;;;;;;;;;
2021/03/09 01:41:56;;;;;;;7.9;4.4;;;;;;;;;;;;;
2021/03/09 01:44:21;;;;;;;5.8;4;;;;;;;;;;;;;
2021/03/09 01:46:47;;;;;;;8.8;5.4;;;;;;;;;;;;;
2021/03/09 01:49:12;;;;;;;8.7;4.5;;;;;;;;;;;;;
2021/03/09 01:51:37;;;;;;;9.5;6;;;;;;;;;;;;;
2021/03/09 01:54:04;;;;;;;7.7;4.4;;;;;;;;;;;;;
2021/03/09 01:56:29;;;;;;;9.4;5.8;;;;;;;;;;;;;
2021/03/09 01:58:54;;;;;;;9.7;4.7;;;;;;;;;;;;;
2021/03/09 02:01:20;;;;;;;10.4;5.5;;;;;;;;;;;;;
2021/03/09 02:03:45;;;;;;;9.7;5.9;;;;;;;;;;;;;
2021/03/09 02:06:10;;;;;;;10.9;4.8;;;;;;;;;;;;;
2021/03/09 02:08:37;;;;;;;8.7;5.5;;;;;;;;;;;;;
2021/03/09 02:11:02;;;;;;;10;5.6;;;;;;;;;;;;;
2021/03/09 02:13:30;;;;;;;9;4.2;;;;;;;;;;;;;
2021/03/09 02:15:57;;;;;;;9.4;5.6;;;;;;;;;;;;;
2021/03/09 02:18:22;;;;;;;10.2;5.7;;;;;;;;;;;;;
2021/03/09 02:20:48;;;;;;;6.8;4.5;;;;;;;;;;;;;
2021/03/09 02:23:16;;;;;;;8.7;5.5;;;;;;;;;;;;;
2021/03/09 02:25:42;;;;;;;7.1;4.6;;;;;;;;;;;;;
2021/03/09 02:28:07;;;;;;;9.7;6.1;;;;;;;;;;;;;
2021/03/09 02:30:36;;;;;;;7.3;4.9;;;;;;;;;;;;;
2021/03/09 02:33:01;;;;;;;7.6;5.4;;;;;;;;;;;;;
2021/03/09 02:35:26;;;;;;;8;4.2;;;;;;;;;;;;;
2021/03/09 02:37:51;;;;;;;9.8;5.7;;;;;;;;;;;;;
2021/03/09 02:40:17;;;;;;;6.7;5;;;;;;;;;;;;;
2021/03/09 02:42:42;;;;;;;9.1;6.3;;;;;;;;;;;;;
2021/03/09 02:45:10;;;;;;;5.6;4.3;;;;;;;;;;;;;
2021/03/09 02:47:35;;;;;;;13.3;5.7;;;;;;;;;;;;;
2021/03/09 02:50:02;;;;;;;8.7;4.9;;;;;;;;;;;;;
2021/03/09 02:52:25;;;;;;;10;5.1;;;;;;;;;;;;;
2021/03/09 02:54:50;;;;;;;9.6;5.6;;;;;;;;;;;;;
2021/03/09 02:57:16;;;;;;;5.3;4.3;;;;;;;;;;;;;
2021/03/09 02:59:42;;;;;;;13.5;5.4;;;;;;;;;;;;;
2021/03/09 03:02:07;;;;;;;11.8;4.9;;;;;;;;;;;;;
2021/03/09 03:04:33;;;;;;;6.5;4.7;;;;;;;;;;;;;
2021/03/09 03:06:58;;;;;;;10.9;5.5;;;;;;;;;;;;;
2021/03/09 03:09:24;;;;;;;5.5;4.5;;;;;;;;;;;;;
2021/03/09 03:11:49;;;;;;;6.6;4.3;;;;;;;;;;;;;
2021/03/09 03:14:18;;;;;;;8.3;5.1;;;;;;;;;;;;;
2021/03/09 03:16:43;;;;;;;5.3;4.2;;;;;;;;;;;;;
2021/03/09 03:19:10;;;;;;;7.3;4.4;;;;;;;;;;;;;
2021/03/09 03:21:36;;;;;;;9;6.1;;;;;;;;;;;;;
2021/03/09 03:24:03;;;;;;;7.9;4.5;;;;;;;;;;;;;
2021/03/09 03:26:28;;;;;;;6.3;4.3;;;;;;;;;;;;;
2021/03/09 03:28:56;;;;;;;9.8;5.5;;;;;;;;;;;;;
2021/03/09 03:31:21;;;;;;;7.8;4.5;;;;;;;;;;;;;
2021/03/09 03:33:48;;;;;;;6.3;4;;;;;;;;;;;;;
2021/03/09 03:36:13;;;;;;;6.9;4;;;;;;;;;;;;;
2021/03/09 03:38:38;;;;;;;7.9;5.4;;;;;;;;;;;;;
2021/03/09 03:41:03;;;;;;;7.2;4.4;;;;;;;;;;;;;
2021/03/09 03:43:29;;;;;;;7.3;4.6;;;;;;;;;;;;;
2021/03/09 03:45:54;;;;;;;6.4;5.1;;;;;;;;;;;;;
2021/03/09 03:48:22;;;;;;;14.4;4.4;;;;;;;;;;;;;
2021/03/09 03:50:47;;;;;;;7.9;4.9;;;;;;;;;;;;;
2021/03/09 03:53:12;;;;;;;11.4;5.8;;;;;;;;;;;;;
2021/03/09 03:55:37;;;;;;;6.9;5.1;;;;;;;;;;;;;
2021/03/09 03:58:03;;;;;;;6.5;3.9;;;;;;;;;;;;;
2021/03/09 04:02:35;;;;;;;7.7;4.1;;;;;;;-0.03;86.21289;936.1606;;;;
2021/03/09 04:05:01;;;;;;;8.6;3.8;;;;;;;-0.11;87.04297;936.1234;;;;
2021/03/09 04:07:26;;;;;;;8.4;4.1;;;;;;;-0.08;87.02734;936.063;;;;
2021/03/09 04:09:55;;;;;;;7;4.8;;;;;;;-0.02;86.49316;936.1898;;;;
2021/03/09 04:12:20;;;;;;;11.4;4.8;;;;;;;0.03;86.13672;936.2363;;;;
2021/03/09 04:14:50;;;;;;;6.5;4.2;;;;;;;0.07;85.86523;936.2263;;;;
2021/03/09 04:17:29;;;;;;;6.7;4.5;;;;;;;0.17;85.38379;936.2392;;;;
2021/03/09 04:20:02;;;;;;;9;5.1;;;;;;;0.12;84.73828;936.2411;;;;
2021/03/09 04:22:32;;;;;;;7.7;4.3;;;;;;;0.16;84.38086;936.265;;;;
2021/03/09 04:25:04;;;;;;;7.7;4.4;;;;;;;-0.01;84.46777;936.2491;;;;
2021/03/09 04:27:29;;;;;;;6.6;4.1;;;;;;;0.04;84.44531;936.2202;;;;
2021/03/09 04:30:00;;;;;;;11.6;3.9;;;;;;;-0.01;84.26758;936.2078;;;;
2021/03/09 04:32:25;;;;;;;9.5;4.3;;;;;;;-0.06;84.24707;936.1422;;;;
2021/03/09 04:34:58;;;;;;;4.9;4.3;;;;;;;-0.06;84.20215;936.2148;;;;
2021/03/09 04:37:23;;;;;;;8.6;4.6;;;;;;;0;83.75879;936.0668;;;;
2021/03/09 04:39:56;;;;;;;11.6;4.4;;;;;;;-0.01;83.43359;936.2071;;;;
2021/03/09 04:42:21;;;;;;;4.8;3.4;;;;;;;0.11;83.13379;936.1766;;;;
2021/03/09 04:44:52;;;;;;;6.5;3.6;;;;;;;0.17;82.59863;936.2011;;;;
2021/03/09 04:47:19;;;;;;;7.2;4.2;;;;;;;0.14;82.45898;936.1448;;;;
2021/03/09 04:49:45;;;;;;;6.1;3.9;;;;;;;0.06;82.85742;936.2363;;;;
2021/03/09 04:52:11;;;;;;;7.5;4.6;;;;;;;0.04;82.99707;936.2839;;;;
2021/03/09 04:54:36;;;;;;;7.2;5;;;;;;;-0.11;83.42285;936.1898;;;;
2021/03/09 04:57:08;;;;;;;6.7;4.2;;;;;;;-0.16;83.82617;936.1971;;;;
2021/03/09 04:59:37;;;;;;;9.3;4.6;;;;;;;-0.13;83.91016;936.1795;;;;
2021/03/09 05:02:02;;;;;;;8;4.9;;;;;;;-0.18;83.99023;936.1133;;;;
2021/03/09 05:04:33;;;;;;;11;5;;;;;;;-0.18;83.93262;936.0952;;;;
2021/03/09 05:07:03;;;;;;;5.8;3.7;;;;;;;-0.2;83.93066;936.153;;;;
2021/03/09 05:09:33;;;;;;;9;6.6;;;;;;;-0.31;84.43066;936.1639;;;;
2021/03/09 05:12:00;;;;;;;10.1;6.4;;;;;;;-0.22;84.57129;936.1578;;;;
2021/03/09 05:14:34;;;;;;;7.4;3.9;;;;;;;-0.28;84.07031;936.1568;;;;
2021/03/09 05:17:06;;;;;;;7.2;4.2;;;;;;;-0.19;83.78613;936.136;;;;
2021/03/09 05:19:34;;;;;;;8.3;4.3;;;;;;;-0.24;83.81055;936.1915;;;;
2021/03/09 05:22:01;;;;;;;9.6;4.3;;;;;;;-0.39;84.08008;936.1478;;;;
2021/03/09 05:24:32;;;;;;;9.6;4.4;;;;;;;-0.4;84.22266;936.1368;;;;
2021/03/09 05:27:04;;;;;;;7.3;4.7;;;;;;;-0.61;84.95996;936.1948;;;;
2021/03/09 05:29:35;;;;;;;5.5;4;;;;;;;-0.59;85.65332;936.1155;;;;
2021/03/09 05:32:03;;;;;;;12.1;5.1;;;;;;;-0.54;85.50684;936.1005;;;;
2021/03/09 05:34:36;;;;;;;6.2;4.5;;;;;;;-0.41;84.90039;936.105;;;;
2021/03/09 05:37:03;;;;;;;6.7;4.1;;;;;;;-0.39;84.53613;936.1141;;;;
2021/03/09 05:39:28;;;;;;;8.6;5.2;;;;;;;-0.37;84.46387;936.0869;;;;
2021/03/09 05:41:58;;;;;;;7;4.7;;;;;;;-0.37;84.36426;936.0198;;;;
2021/03/09 05:44:29;;;;;;;7.4;3.7;;;;;;;-0.37;84.20801;936.0433;;;;
2021/03/09 05:46:54;;;;;;;8.6;5.4;;;;;;;-0.41;83.98535;936.0994;;;;
2021/03/09 05:49:27;;;;;;;4.8;3.5;;;;;;;-0.49;84.39453;936.2053;;;;
2021/03/09 05:51:53;;;;;;;7.7;4.3;;;;;;;-0.45;84.38086;936.1954;;;;
2021/03/09 05:54:26;;;;;;;8.4;3.9;;;;;;;-0.39;84.19141;936.1594;;;;
2021/03/09 05:56:51;;;;;;;6.7;3.2;;;;;;;-0.45;84.10254;936.1548;;;;
2021/03/09 05:59:22;;;;;;;15.9;10;;;;;;;-0.59;84.57227;936.1669;;;;
2021/03/09 06:01:49;;;;;;;6.1;4.2;;;;;;;-0.75;85.15332;936.1906;;;;
2021/03/09 06:04:20;;;;;;;7.1;4.5;;;;;;;-0.75;85.54297;936.1857;;;;
2021/03/09 06:06:46;;;;;;;7.7;4.6;;;;;;;-0.62;85.125;936.1609;;;;
2021/03/09 06:09:14;;;;;;;21.6;12.4;;;;;;;-0.57;85.01172;936.2112;;;;
2021/03/09 06:11:39;;;;;;;9.3;5.6;;;;;;;-0.49;84.70703;936.2087;;;;
2021/03/09 06:14:08;;;;;;;9;5.2;;;;;;;-0.41;84.47754;936.1802;;;;
2021/03/09 06:16:51;;;;;;;7.7;4.6;;;;;;;-0.22;84.02734;936.0979;;;;
2021/03/09 06:19:16;;;;;;;7.3;4.3;;;;;;;0.09;83.45117;936.2029;;;;
2021/03/09 06:21:46;;;;;;;6.9;5;;;;;;;0.65;81.04102;936.1775;;;;
2021/03/09 06:24:11;;;;;;;9.5;5.9;;;;;;;1.37;78.30762;936.1234;;;;
2021/03/09 06:26:36;;;;;;;10.3;4.6;;;;;;;1.83;75.42773;936.0355;;;;
2021/03/09 06:29:01;;;;;;;9.2;5.1;;;;;;;2.34;73.02148;936.1713;;;;
2021/03/09 06:31:26;;;;;;;6.7;4.4;;;;;;;3.05;69.83301;936.0927;;;;
2021/03/09 06:33:52;;;;;;;7.1;3.9;;;;;;;3.58;67.69629;936.0508;;;;
2021/03/09 06:36:17;;;;;;;127.4;42.7;;;;;;;3.94;66.38184;936.0619;;;;
2021/03/09 06:38:42;;;;;;;19.2;9.3;;;;;;;4.35;64.72168;936.0492;;;;
2021/03/09 06:41:14;;;;;;;97.4;42.2;;;;;;;4.85;62.95215;936.08;;;;
2021/03/09 06:43:37;;;;;;;6.2;4;;;;;;;4.34;63.43848;936.1216;;;;
2021/03/09 06:46:04;;;;;;;7.2;3.9;;;;;;;4.14;64.64648;936.1738;;;;
2021/03/09 06:48:32;;;;;;;7;3.8;;;;;;;4.43;63.81348;936.1616;;;;
2021/03/09 06:50:58;;;;;;;7.3;4.2;;;;;;;4.33;63.7959;936.1763;;;;
2021/03/09 06:53:27;;;;;;;8.1;3.5;;;;;;;4.19;64.53125;936.2208;;;;
2021/03/09 06:55:52;;;;;;;8.1;4.1;;;;;;;4.44;64.29785;936.175;;;;
2021/03/09 06:58:20;;;;;;;5;3.4;;;;;;;4.66;62.90039;936.1878;;;;
2021/03/09 07:00:45;;;;;;;4.9;3.6;;;;;;;4.38;64.13086;936.1722;;;;
2021/03/09 07:03:11;;;;;;;5.1;3.7;;;;;;;4.84;63.53613;936.2138;;;;
2021/03/09 07:05:41;;;;;;;7.1;3.7;;;;;;;5.01;62.72656;936.1775;;;;
2021/03/09 07:08:06;;;;;;;4.2;2.7;;;;;;;5.32;60.05371;936.103;;;;
2021/03/09 07:10:32;;;;;;;5.4;3.2;;;;;;;6.37;57.36328;936.1041;;;;
2021/03/09 07:13:02;;;;;;;3.8;2.6;;;;;;;6.77;55.67383;936.1303;;;;
2021/03/09 07:15:42;;;;;;;4;2.7;;;;;;;7.12;54.32617;936.1733;;;;
2021/03/09 07:18:09;;;;;;;4.9;2.3;;;;;;;6.93;55.16309;936.1765;;;;
2021/03/09 07:20:38;;;;;;;5.6;3.1;;;;;;;7.98;52.8457;936.1638;;;;
2021/03/09 07:23:07;;;;;;;5.4;2;;;;;;;8.74;50.38086;936.1331;;;;
2021/03/09 07:25:32;;;;;;;2.3;1.6;;;;;;;9.35;49.10938;936.1618;;;;
2021/03/09 07:28:00;;;;;;;4.3;2;;;;;;;10.22;46.85742;936.106;;;;
2021/03/09 07:30:25;;;;;;;6.9;2.5;;;;;;;10.43;46.27539;936.1298;;;;
2021/03/09 07:32:51;;;;;;;3.5;2.2;;;;;;;10.57;45.66113;936.1219;;;;
2021/03/09 07:35:16;;;;;;;7.7;2.3;;;;;;;10.4;44.16016;936.1174;;;;
2021/03/09 07:37:44;;;;;;;3.7;2.1;;;;;;;10.17;46.07715;936.0978;;;;
2021/03/09 07:40:09;;;;;;;3.7;2.5;;;;;;;9.9;45.29492;936.0747;;;;
2021/03/09 07:42:34;;;;;;;2;1.6;;;;;;;10.04;47.36328;936.0706;;;;
2021/03/09 07:45:02;;;;;;;4.4;2;;;;;;;10.47;47.0791;936.0449;;;;
2021/03/09 07:47:27;;;;;;;5.5;2.7;;;;;;;10.33;46.53809;936.0692;;;;
2021/03/09 07:49:54;;;;;;;4.1;2.6;;;;;;;11.34;43.15918;936.014;;;;
2021/03/09 07:52:19;;;;;;;2.9;2.2;;;;;;;11.08;43.37207;936.0432;;;;
2021/03/09 07:54:44;;;;;;;4.1;1.9;;;;;;;11.48;41.83301;936.0211;;;;
2021/03/09 07:57:09;;;;;;;3.2;2.1;;;;;;;12.08;41.83398;936.0675;;;;
2021/03/09 07:59:36;;;;;;;3.8;2.3;;;;;;;11.79;42.73242;936.0947;;;;
2021/03/09 08:02:01;;;;;;;3.3;2.2;;;;;;;12.71;41.49414;936.098;;;;
2021/03/09 08:04:26;;;;;;;3.9;2.2;;;;;;;13.21;40.72559;936.0341;;;;
2021/03/09 08:06:52;;;;;;;4.8;3;;;;;;;12.09;43.0957;936.0859;;;;
2021/03/09 08:09:16;;;;;;;5.9;2.9;;;;;;;11.54;43.18945;936.0786;;;;
2021/03/09 08:11:42;;;;;;;5.6;3.1;;;;;;;11.59;43.50488;936.0309;;;;
2021/03/09 08:14:07;;;;;;;6.1;3;;;;;;;11.26;43.79199;936.0489;;;;
2021/03/09 08:16:36;;;;;;;5.6;2.4;;;;;;;11.44;42.76855;936.0736;;;;
2021/03/09 08:19:01;;;;;;;2.9;2.1;;;;;;;11.68;42.03613;936.0632;;;;
2021/03/09 08:21:26;;;;;;;7.2;1.3;;;;;;;11.84;42.45313;936.0695;;;;
2021/03/09 08:23:52;;;;;;;2.3;1.7;;;;;;;12.13;42.33301;936.1314;;;;
2021/03/09 08:26:18;;;;;;;3;1.8;;;;;;;12.59;40.57617;936.0541;;;;
2021/03/09 08:28:48;;;;;;;2.7;2;;;;;;;12.95;40.15039;936.1121;;;;
2021/03/09 08:31:13;;;;;;;4.6;2.4;;;;;;;12.44;41.1123;936.0743;;;;
2021/03/09 08:33:38;;;;;;;3.4;2.2;;;;;;;13.45;39.73535;936.0759;;;;
2021/03/09 08:36:04;;;;;;;6.4;2.9;;;;;;;13.84;39.12891;936.0005;;;;
2021/03/09 08:38:29;;;;;;;3.9;2.5;;;;;;;14.57;37.34863;935.9838;;;;
2021/03/09 08:40:54;;;;;;;5.2;2.6;;;;;;;14.67;38.25684;935.9678;;;;
2021/03/09 08:43:20;;;;;;;2.4;2.1;;;;;;;15.1;36.24023;935.9911;;;;
2021/03/09 08:45:45;;;;;;;10.9;2.1;;;;;;;15.56;34.78906;935.9786;;;;
2021/03/09 08:48:14;;;;;;;3.7;1.8;;;;;;;15.6;34.3877;935.9519;;;;
2021/03/09 08:50:39;;;;;;;4.9;2.3;;;;;;;15.08;35.75391;935.9183;;;;
2021/03/09 08:53:05;;;;;;;3.6;2.9;;;;;;;15.21;35.51172;935.8766;;;;
2021/03/09 08:55:30;;;;;;;4;2.1;;;;;;;14.48;37.56055;935.963;;;;
2021/03/09 08:57:55;;;;;;;3.2;2.6;;;;;;;14.49;36.9043;935.9901;;;;
2021/03/09 09:00:21;;;;;;;2.4;1.9;;;;;;;14.35;37.84961;935.9835;;;;
2021/03/09 09:02:46;;;;;;;6.4;3;;;;;;;14.79;37.21777;935.92;;;;
2021/03/09 09:05:13;;;;;;;3.4;2.4;;;;;;;15.44;35.66895;935.9112;;;;
2021/03/09 09:07:41;;;;;;;4.6;2.1;;;;;;;15.86;34.30469;935.9288;;;;
2021/03/09 09:10:05;;;;;;;3.2;2.4;;;;;;;15.96;34.27734;935.8934;;;;
2021/03/09 09:12:33;;;;;;;3.6;1.9;;;;;;;14.8;36.94238;935.8543;;;;
2021/03/09 09:14:58;;;;;;;3.3;1.9;;;;;;;14.44;37.62695;935.8383;;;;
2021/03/09 09:17:24;;;;;;;6.4;2.6;;;;;;;14.84;36.7041;935.887;;;;
2021/03/09 09:19:50;;;;;;;4.9;3;;;;;;;15.47;35.5332;935.824;;;;
2021/03/09 09:22:15;;;;;;;5;2.1;;;;;;;14.54;38.15332;935.8774;;;;
2021/03/09 09:24:42;;;;;;;3.2;2.3;;;;;;;15.2;36.34082;935.9;;;;
2021/03/09 09:27:14;;;;;;;2.4;1.8;;;;;;;14.59;37.30469;935.9147;;;;
2021/03/09 09:29:32;;;;;;;4.9;2.5;;;;;;;13.94;38.6875;935.8998;;;;
2021/03/09 09:32:02;;;;;;;4.1;2.4;;;;;;;12.66;40.8916;935.9592;;;;
2021/03/09 09:34:27;;;;;;;6;2.2;;;;;;;12.94;40.22949;935.957;;;;
2021/03/09 09:36:54;;;;;;;4.4;2.5;;;;;;;14.17;38.20215;935.9263;;;;
2021/03/09 09:39:18;;;;;;;3.9;2.1;;;;;;;14.7;37.22266;935.8649;;;;
2021/03/09 09:41:45;;;;;;;4.4;3.2;;;;;;;14.52;37.90918;935.8929;;;;
2021/03/09 09:44:10;;;;;;;3.9;2.6;;;;;;;14.9;36.88184;935.9111;;;;
2021/03/09 09:46:35;;;;;;;5;3.1;;;;;;;15.06;35.85742;935.7108;;;;
2021/03/09 09:49:03;;;;;;;3.9;2.4;;;;;;;14.72;37.50098;935.7949;;;;
2021/03/09 09:51:28;;;;;;;3.4;2.5;;;;;;;13.77;39.34082;935.8094;;;;
2021/03/09 09:53:56;;;;;;;4.3;2.9;;;;;;;12.64;41.64844;935.8345;;;;
2021/03/09 09:56:20;;;;;;;8.1;3.3;;;;;;;12.83;43.14648;935.9142;;;;
2021/03/09 09:58:46;;;;;;;6.9;2.9;;;;;;;12.98;41.05957;935.8562;;;;
2021/03/09 10:01:12;;;;;;;4.1;2.6;;;;;;;13.36;41.03809;935.8434;;;;
2021/03/09 10:03:38;;;;;;;2.9;2.2;;;;;;;13.42;40.83789;935.8145;;;;
2021/03/09 10:06:03;;;;;;;7.5;2.8;;;;;;;13.87;40.07324;935.7827;;;;
2021/03/09 10:08:28;;;;;;;4.1;2.5;;;;;;;13.3;40.23926;935.8525;;;;
2021/03/09 10:10:55;;;;;;;3.7;2.7;;;;;;;13.94;38.72266;935.7237;;;;
2021/03/09 10:13:20;;;;;;;3.5;2.3;;;;;;;14.53;37.77246;935.743;;;;
2021/03/09 10:15:53;;;;;;;3.9;2.3;;;;;;;14.65;38.79688;935.6771;;;;
2021/03/09 10:18:18;;;;;;;5;2.3;;;;;;;13.48;40.5332;935.647;;;;
2021/03/09 10:20:45;;;;;;;4;2.2;;;;;;;13.05;41.23828;935.7371;;;;
2021/03/09 10:23:13;;;;;;;6.5;2.9;;;;;;;13.04;41.7207;935.7267;;;;
2021/03/09 10:25:38;;;;;;;3.6;2.4;;;;;;;12.97;42.21777;935.6061;;;;
2021/03/09 10:28:04;;;;;;;3.6;2.3;;;;;;;13.15;42.41895;935.7231;;;;
2021/03/09 10:30:31;;;;;;;6.5;2.7;;;;;;;12.67;43.81934;935.7371;;;;
2021/03/09 10:32:56;;;;;;;4.1;2.6;;;;;;;12.8;43.45313;935.6752;;;;
2021/03/09 10:35:21;;;;;;;3.4;2.3;;;;;;;12.79;42.87891;935.6648;;;;
2021/03/09 10:37:50;;;;;;;4.4;3.3;;;;;;;13.48;40.87695;935.5086;;;;
2021/03/09 10:40:15;;;;;;;3.9;2.6;;;;;;;13.07;43.04492;935.5683;;;;
2021/03/09 10:42:40;;;;;;;4.3;2.6;;;;;;;13.74;41.84473;935.5392;;;;
2021/03/09 10:45:05;;;;;;;5.2;2.7;;;;;;;13.69;41.44922;935.4883;;;;
2021/03/09 10:47:31;;;;;;;6.4;2.4;;;;;;;12.93;43.48926;935.5071;;;;
2021/03/09 10:49:56;;;;;;;4.8;2.9;;;;;;;12.56;43.76172;935.515;;;;
2021/03/09 10:52:21;;;;;;;7.4;2.7;;;;;;;12.78;44.23047;935.457;;;;
2021/03/09 10:54:47;;;;;;;3.3;2.2;;;;;;;13.21;43.51758;935.4827;;;;
2021/03/09 10:57:12;;;;;;;6.8;2.7;;;;;;;12.31;45.37598;935.4338;;;;
2021/03/09 10:59:40;;;;;;;6.2;3.1;;;;;;;12.43;46.22656;935.4531;;;;
2021/03/09 11:02:05;;;;;;;3.8;2.5;;;;;;;12.64;44.5625;935.4272;;;;
2021/03/09 11:04:30;;;;;;;4.6;2.4;;;;;;;11.47;47.35938;935.416;;;;
2021/03/09 11:06:57;;;;;;;3.8;2.4;;;;;;;11.51;47.1123;935.4439;;;;
2021/03/09 11:09:23;;;;;;;3.8;2.4;;;;;;;11.42;47.34375;935.4199;;;;
2021/03/09 11:11:49;;;;;;;4.3;2.5;;;;;;;12.15;44.88965;935.4091;;;;
2021/03/09 11:14:14;;;;;;;3.7;2.5;;;;;;;11.99;47.39355;935.4233;;;;
2021/03/09 11:16:43;;;;;;;6.5;2.6;;;;;;;12.09;47.89648;935.3661;;;;
2021/03/09 11:19:13;;;;;;;4.8;2.6;;;;;;;12.15;47.80176;935.4066;;;;
2021/03/09 11:21:39;;;;;;;4.1;2.7;;;;;;;13.07;44.68652;935.3485;;;;
2021/03/09 11:24:05;;;;;;;3.6;2.8;;;;;;;12.8;45.70313;935.3851;;;;
2021/03/09 11:26:32;;;;;;;4.4;2.9;;;;;;;12.26;46.57422;935.2488;;;;
2021/03/09 11:28:57;;;;;;;6.8;2.9;;;;;;;11.73;48.34961;935.2744;;;;
2021/03/09 11:31:24;;;;;;;5.3;3.1;;;;;;;11.5;48.59863;935.3386;;;;
2021/03/09 11:33:49;;;;;;;4.4;2.9;;;;;;;11.97;46.55469;935.3419;;;;
2021/03/09 11:36:16;;;;;;;4.6;2.8;;;;;;;12.13;45.56348;935.358;;;;
2021/03/09 11:38:41;;;;;;;5;3.4;;;;;;;12.04;46.71094;935.343;;;;
2021/03/09 11:41:09;;;;;;;4.2;3.3;;;;;;;12.32;45.0791;935.3173;;;;
2021/03/09 11:43:34;;;;;;;10.8;2.7;;;;;;;12.57;45.5293;935.36;;;;
2021/03/09 11:46:01;;;;;;;4.6;2.6;;;;;;;11.91;43.71875;935.2542;;;;
2021/03/09 11:48:26;;;;;;;2.5;2.3;;;;;;;10.93;48.2373;935.358;;;;
2021/03/09 11:50:54;;;;;;;3.7;2.8;;;;;;;10.38;49.22656;935.2252;;;;
2021/03/09 11:53:19;;;;;;;5.6;3.4;;;;;;;10.44;48.82129;935.3141;;;;
2021/03/09 11:55:45;;;;;;;7.8;3;;;;;;;10.5;48.15625;935.2213;;;;
2021/03/09 11:58:10;;;;;;;5.1;3;;;;;;;10.22;47.64453;935.2123;;;;
2021/03/09 12:00:43;;;;;;;6.9;3;;;;;;;10.48;49.16895;935.214;;;;
2021/03/09 12:03:12;;;;;;;4.2;2.8;;;;;;;10.15;49.42871;935.2726;;;;
2021/03/09 12:05:37;;;;;;;7.4;2.8;;;;;;;9.69;50.49316;935.2124;;;;
2021/03/09 12:08:05;;;;;;;3.8;2.6;;;;;;;9.27;51.07031;935.2068;;;;
2021/03/09 12:10:30;;;;;;;5.4;3.4;;;;;;;9.03;51.05273;935.1986;;;;
2021/03/09 12:12:56;;;;;;;6.2;3.5;;;;;;;8.69;53.63867;935.2086;;;;
2021/03/09 12:15:21;;;;;;;5.7;2.7;;;;;;;8.39;57.45313;935.2433;;;;
2021/03/09 12:17:50;;;;;;;5.1;3.4;;;;;;;8.7;54.90137;935.1658;;;;
2021/03/09 12:20:20;;;;;;;6.8;3.6;;;;;;;8.59;56.77441;935.1429;;;;
2021/03/09 12:22:48;;;;;;;3.5;2.2;;;;;;;8.17;56.53809;935.1266;;;;
2021/03/09 12:25:13;;;;;;;4.5;3;;;;;;;8.1;58.09375;935.1097;;;;
2021/03/09 12:27:41;;;;;;;6;3.5;;;;;;;8.37;56.38086;935.0392;;;;
2021/03/09 12:30:06;;;;;;;3.1;2.7;;;;;;;8.23;56.81738;935.1228;;;;
2021/03/09 12:32:33;;;;;;;3.4;2.5;;;;;;;8.51;56.65039;935.1285;;;;
2021/03/09 12:34:58;;;;;;;4.8;2.9;;;;;;;8.81;55.95117;935.1469;;;;
2021/03/09 12:37:25;;;;;;;4.1;2.8;;;;;;;8.76;54.83008;935.0452;;;;
2021/03/09 12:39:50;;;;;;;5.4;3.6;;;;;;;8.63;56.13086;935.0096;;;;
2021/03/09 12:42:16;;;;;;;6.6;3;;;;;;;8.59;55.93359;934.9659;;;;
2021/03/09 12:44:41;;;;;;;6.1;3.6;;;;;;;8.39;56.06641;935.0212;;;;
2021/03/09 12:47:08;;;;;;;4.8;3;;;;;;;8.58;56.22656;935.0016;;;;
2021/03/09 12:49:34;;;;;;;8.2;2.6;;;;;;;8.35;57.24219;934.9589;;;;
2021/03/09 12:52:01;;;;;;;5;3.1;;;;;;;8.43;56.38867;934.9172;;;;
2021/03/09 12:54:26;;;;;;;7.2;3.7;;;;;;;8.53;55.6748;934.8986;;;;
2021/03/09 12:56:53;;;;;;;3.9;3.2;;;;;;;7.95;58.13086;934.9846;;;;
2021/03/09 12:59:18;;;;;;;2.9;2.4;;;;;;;8.09;55.82227;934.9573;;;;
2021/03/09 13:01:46;;;;;;;4.5;2.6;;;;;;;8.05;56.96582;934.9133;;;;
2021/03/09 13:04:10;;;;;;;4.6;3.1;;;;;;;8.13;57.12109;934.9412;;;;
2021/03/09 13:06:36;;;;;;;5.3;2.9;;;;;;;8.02;56.67578;934.9564;;;;
2021/03/09 13:09:03;;;;;;;5.7;3.2;;;;;;;7.54;59.20996;934.9258;;;;
2021/03/09 13:11:27;;;;;;;4.2;2.9;;;;;;;7.49;59.04395;934.9155;;;;
2021/03/09 13:13:52;;;;;;;4.3;3.2;;;;;;;7.73;58.46387;934.8519;;;;
2021/03/09 13:16:20;;;;;;;7.6;3.9;;;;;;;7.61;58.3457;934.8851;;;;
2021/03/09 13:18:45;;;;;;;2.9;2.3;;;;;;;7.45;59.1748;934.9006;;;;
2021/03/09 13:21:14;;;;;;;3.2;2.7;;;;;;;7.32;60.07422;934.903;;;;
2021/03/09 13:23:41;;;;;;;4.2;3.3;;;;;;;7.44;59.09375;934.8521;;;;
2021/03/09 13:26:07;;;;;;;5.1;3.5;;;;;;;7.47;59.77832;934.9191;;;;
2021/03/09 13:28:32;;;;;;;6.8;3.3;;;;;;;7.4;59.43945;934.9645;;;;
2021/03/09 13:31:01;;;;;;;6.8;3.6;;;;;;;7.34;59.39844;934.9105;;;;
2021/03/09 13:33:30;;;;;;;6.2;3.4;;;;;;;7.26;59.7041;934.9045;;;;
2021/03/09 13:35:55;;;;;;;6.2;3.4;;;;;;;7;59.99512;934.8606;;;;
2021/03/09 13:38:22;;;;;;;9;3.6;;;;;;;7;60.33691;934.926;;;;
2021/03/09 13:40:48;;;;;;;4.1;3;;;;;;;7.04;60.54492;934.9433;;;;
2021/03/09 13:43:14;;;;;;;5.8;3.5;;;;;;;6.78;62.63672;934.9611;;;;
2021/03/09 13:45:39;;;;;;;4.8;3.2;;;;;;;7.08;60.91406;934.8797;;;;
2021/03/09 13:48:05;;;;;;;5.9;3.3;;;;;;;7.43;59.94336;934.951;;;;
2021/03/09 13:50:30;;;;;;;3.4;2.7;;;;;;;7.39;59.51758;934.9572;;;;
2021/03/09 13:53:00;;;;;;;6.8;3.8;;;;;;;7.41;59.53027;934.9827;;;;
2021/03/09 13:55:25;;;;;;;4.4;3.1;;;;;;;7.22;59.74316;934.9719;;;;
2021/03/09 13:57:52;;;;;;;4.6;2.9;;;;;;;7.24;60.06348;934.9634;;;;
2021/03/09 14:00:18;;;;;;;2.6;2.4;;;;;;;7.41;60.3252;934.9863;;;;
2021/03/09 14:02:46;;;;;;;5.1;3.6;;;;;;;7.41;60.07422;934.9598;;;;
2021/03/09 14:05:10;;;;;;;5.2;3.4;;;;;;;7.53;58.43652;934.9841;;;;
2021/03/09 14:07:38;;;;;;;5.3;3.3;;;;;;;7.26;59.5332;934.9352;;;;
2021/03/09 14:10:03;;;;;;;5.5;3;;;;;;;7.05;60.44336;934.9908;;;;
2021/03/09 14:12:32;;;;;;;10.6;3.7;;;;;;;7.1;59.9082;935.0108;;;;
2021/03/09 14:14:57;;;;;;;5.8;3.5;;;;;;;7.12;59.24219;934.9476;;;;
2021/03/09 14:17:31;;;;;;;6.3;3.1;;;;;;;7.2;59.08398;934.9688;;;;
2021/03/09 14:20:01;;;;;;;4.6;3.1;;;;;;;7.11;59.68262;934.9547;;;;
2021/03/09 14:22:29;;;;;;;4.2;2.8;;;;;;;7.33;58.85156;935.0045;;;;
2021/03/09 14:24:54;;;;;;;4;3.2;;;;;;;7.39;58.80371;935.015;;;;
2021/03/09 14:27:19;;;;;;;4;2.2;;;;;;;7.32;59.58691;935.0613;;;;
2021/03/09 14:29:44;;;;;;;3.8;2.9;;;;;;;7.39;59.47266;935.0593;;;;
2021/03/09 14:32:13;;;;;;;4.4;3.3;;;;;;;7.29;58.81445;935.1156;;;;
2021/03/09 14:34:37;;;;;;;3.5;2.9;;;;;;;7.27;58.3457;935.0709;;;;
2021/03/09 14:37:04;;;;;;;3.9;2.5;;;;;;;7.22;59.32422;935.1002;;;;
2021/03/09 14:39:29;;;;;;;5.5;3.5;;;;;;;7.06;60.37891;935.1114;;;;
2021/03/09 14:41:58;;;;;;;7.4;3.4;;;;;;;6.83;60.13086;935.1845;;;;
2021/03/09 14:44:23;;;;;;;7.4;3.3;;;;;;;6.68;61.43359;935.1063;;;;
2021/03/09 14:46:51;;;;;;;3.6;2.9;;;;;;;6.98;59.65234;935.1936;;;;
2021/03/09 14:49:16;;;;;;;5;2.8;;;;;;;7.16;59.48633;935.2042;;;;
2021/03/09 14:51:46;;;;;;;6;4;;;;;;;7.34;59.40918;935.1337;;;;
2021/03/09 14:54:08;;;;;;;7.2;3.5;;;;;;;7.29;58.86914;935.2321;;;;
2021/03/09 14:56:35;;;;;;;4.6;3.5;;;;;;;7.19;58.98047;935.2395;;;;
2021/03/09 14:59:00;;;;;;;5.4;3.2;;;;;;;7.3;58.65527;935.2749;;;;
2021/03/09 15:01:27;;;;;;;5.3;3.3;;;;;;;7.21;59.61719;935.3177;;;;
2021/03/09 15:03:52;;;;;;;10.5;3.7;;;;;;;7.28;58.3457;935.3284;;;;
2021/03/09 15:06:19;;;;;;;6.4;3.2;;;;;;;7.27;59.05957;935.337;;;;
2021/03/09 15:08:44;;;;;;;6.3;3.4;;;;;;;7.33;58.11523;935.342;;;;
2021/03/09 15:11:12;;;;;;;6;3.8;;;;;;;7.4;57.17285;935.3272;;;;
2021/03/09 15:13:38;;;;;;;6.3;3.2;;;;;;;7.28;57.29297;935.311;;;;
2021/03/09 15:16:14;;;;;;;9.8;3.5;;;;;;;7.27;57.80176;935.3639;;;;
2021/03/09 15:18:40;;;;;;;5.7;4.1;;;;;;;7.31;58.08984;935.3067;;;;
2021/03/09 15:21:09;;;;;;;6.4;3;;;;;;;7.21;58.69922;935.3122;;;;
2021/03/09 15:23:36;;;;;;;6.1;3.5;;;;;;;7.39;58.03418;935.3588;;;;
2021/03/09 15:26:02;;;;;;;4.1;3.4;;;;;;;7.51;57.23242;935.2937;;;;
2021/03/09 15:28:27;;;;;;;7.7;3.8;;;;;;;7.31;57.98828;935.2964;;;;
2021/03/09 15:30:55;;;;;;;6.8;3.2;;;;;;;7.39;57.42188;935.2573;;;;
2021/03/09 15:33:20;;;;;;;10.4;3;;;;;;;7.35;57.12012;935.1806;;;;
2021/03/09 15:35:47;;;;;;;4.3;2.9;;;;;;;7.17;58.71777;935.2067;;;;
2021/03/09 15:38:12;;;;;;;3.8;3.2;;;;;;;7;59.22461;935.2351;;;;
2021/03/09 15:40:40;;;;;;;4.7;3.3;;;;;;;7.09;58.43457;935.2456;;;;